sensor_id;sensor_type;location;lat;lon;timestamp;pressure;altitude;pressure_sealevel;temperature;humidity
50065;BME280;35951;47.848;-122.338;2022-09-20T00:01:27;100885.88;;;19.38;100.00
50065;BME280;35951;47.848;-122.338;2022-09-20T00:03:59;100887.60;;;19.41;100.00
50065;BME280;35951;47.848;-122.338;2022-09-20T00:06:30;100877.49;;;19.41;100.00
50065;BME280;35951;47.848;-122.338;2022-09-20T00:08:58;100878.75;;;19.44;100.00
50065;BME280;35951;47.848;-122.338;2022-09-20T00:11:28;100876.97;;;19.44;100.00
50065;BME280;35951;47.848;-122.338;2022-09-20T00:13:59;100873.02;;;19.44;100.00
50065;BME280;35951;47.848;-122.338;2022-09-20T00:16:29;100876.11;;;19.44;100.00
50065;BME280;35951;47.848;-122.338;2022-09-20T00:19:00;100874.34;;;19.44;100.00
50065;BME280;35951;47.848;-122.338;2022-09-20T00:21:32;100875.62;;;19.46;100.00
50065;BME280;35951;47.848;-122.338;2022-09-20T00:24:01;100875.97;;;19.50;100.00
50065;BME280;35951;47.848;-122.338;2022-09-20T00:26:30;100874.64;;;19.50;100.00
50065;BME280;35951;47.848;-122.338;2022-09-20T00:28:57;100877.22;;;19.53;100.00
50065;BME280;35951;47.848;-122.338;2022-09-20T00:31:26;100878.08;;;19.53;100.00
50065;BME280;35951;47.848;-122.338;2022-09-20T00:33:57;100881.58;;;19.55;100.00
50065;BME280;35951;47.848;-122.338;2022-09-20T00:36:43;100882.89;;;19.55;100.00
50065;BME280;35951;47.848;-122.338;2022-09-20T00:39:13;100883.75;;;19.56;100.00
50065;BME280;35951;47.848;-122.338;2022-09-20T00:41:42;100880.31;;;19.52;100.00
50065;BME280;35951;47.848;-122.338;2022-09-20T00:47:21;100880.50;;;19.45;100.00
50065;BME280;35951;47.848;-122.338;2022-09-20T00:49:54;100883.77;;;19.35;100.00
50065;BME280;35951;47.848;-122.338;2022-09-20T00:52:23;100882.99;;;19.30;100.00
50065;BME280;35951;47.848;-122.338;2022-09-20T00:54:53;100887.43;;;19.28;100.00
50065;BME280;35951;47.848;-122.338;2022-09-20T00:57:20;100887.92;;;19.26;100.00
50065;BME280;35951;47.848;-122.338;2022-09-20T00:59:49;100891.87;;;19.26;100.00
50065;BME280;35951;47.848;-122.338;2022-09-20T01:02:23;100890.98;;;19.27;100.00
50065;BME280;35951;47.848;-122.338;2022-09-20T01:04:52;100888.84;;;19.25;100.00
50065;BME280;35951;47.848;-122.338;2022-09-20T01:07:22;100885.34;;;19.23;100.00
50065;BME280;35951;47.848;-122.338;2022-09-20T01:09:51;100891.53;;;19.22;100.00
50065;BME280;35951;47.848;-122.338;2022-09-20T01:12:24;100895.48;;;19.22;100.00
50065;BME280;35951;47.848;-122.338;2022-09-20T01:14:54;100899.42;;;19.22;100.00
50065;BME280;35951;47.848;-122.338;2022-09-20T01:17:24;100896.82;;;19.20;100.00
50065;BME280;35951;47.848;-122.338;2022-09-20T01:20:06;100903.43;;;19.18;100.00
50065;BME280;35951;47.848;-122.338;2022-09-20T01:28:40;100910.98;;;19.14;100.00
50065;BME280;35951;47.848;-122.338;2022-09-20T01:31:25;100909.72;;;19.11;100.00
50065;BME280;35951;47.848;-122.338;2022-09-20T01:34:00;100914.59;;;19.10;100.00
50065;BME280;35951;47.848;-122.338;2022-09-20T01:42:13;100932.02;;;18.93;100.00
50065;BME280;35951;47.848;-122.338;2022-09-20T01:50:51;100932.66;;;18.84;100.00
50065;BME280;35951;47.848;-122.338;2022-09-20T02:00:00;100950.91;;;18.67;100.00
50065;BME280;35951;47.848;-122.338;2022-09-20T02:11:36;100950.70;;;18.28;100.00
50065;BME280;35951;47.848;-122.338;2022-09-20T02:14:37;100953.07;;;18.16;100.00
50065;BME280;35951;47.848;-122.338;2022-09-20T02:17:26;100946.69;;;18.04;100.00
50065;BME280;35951;47.848;-122.338;2022-09-20T02:20:12;100947.30;;;17.93;100.00
50065;BME280;35951;47.848;-122.338;2022-09-20T02:29:01;100966.95;;;17.62;100.00
50065;BME280;35951;47.848;-122.338;2022-09-20T02:31:57;100975.84;;;17.54;100.00
50065;BME280;35951;47.848;-122.338;2022-09-20T02:43:40;100989.41;;;17.15;100.00
50065;BME280;35951;47.848;-122.338;2022-09-20T02:48:22;100996.64;;;16.93;100.00
50065;BME280;35951;47.848;-122.338;2022-09-20T02:54:13;101002.48;;;16.76;100.00
50065;BME280;35951;47.848;-122.338;2022-09-20T02:57:08;101003.41;;;16.70;100.00
50065;BME280;35951;47.848;-122.338;2022-09-20T02:59:59;101004.75;;;16.65;100.00
50065;BME280;35951;47.848;-122.338;2022-09-20T03:05:36;101021.47;;;16.54;100.00
50065;BME280;35951;47.848;-122.338;2022-09-20T03:08:19;101031.14;;;16.44;100.00
50065;BME280;35951;47.848;-122.338;2022-09-20T03:14:18;101046.55;;;16.30;100.00
50065;BME280;35951;47.848;-122.338;2022-09-20T03:20:12;101046.63;;;16.15;100.00
50065;BME280;35951;47.848;-122.338;2022-09-20T03:23:12;101053.23;;;16.06;100.00
50065;BME280;35951;47.848;-122.338;2022-09-20T03:34:55;101065.16;;;15.75;100.00
50065;BME280;35951;47.848;-122.338;2022-09-20T03:37:57;101069.55;;;15.70;100.00
50065;BME280;35951;47.848;-122.338;2022-09-20T03:40:56;101067.37;;;15.63;100.00
50065;BME280;35951;47.848;-122.338;2022-09-20T03:43:52;101073.50;;;15.58;100.00
50065;BME280;35951;47.848;-122.338;2022-09-20T03:49:33;101069.16;;;15.46;100.00
50065;BME280;35951;47.848;-122.338;2022-09-20T04:01:04;101068.76;;;15.28;100.00
50065;BME280;35951;47.848;-122.338;2022-09-20T04:12:28;101073.59;;;15.16;100.00
50065;BME280;35951;47.848;-122.338;2022-09-20T04:15:17;101077.06;;;15.15;100.00
50065;BME280;35951;47.848;-122.338;2022-09-20T04:17:56;101084.95;;;15.13;100.00
50065;BME280;35951;47.848;-122.338;2022-09-20T04:20:52;101083.64;;;15.10;100.00
50065;BME280;35951;47.848;-122.338;2022-09-20T04:23:48;101086.70;;;15.08;100.00
50065;BME280;35951;47.848;-122.338;2022-09-20T04:26:19;101085.82;;;15.03;100.00
50065;BME280;35951;47.848;-122.338;2022-09-20T04:29:10;101091.05;;;15.02;100.00
50065;BME280;35951;47.848;-122.338;2022-09-20T04:38:13;101101.53;;;14.95;100.00
50065;BME280;35951;47.848;-122.338;2022-09-20T04:47:02;101095.42;;;14.90;100.00
50065;BME280;35951;47.848;-122.338;2022-09-20T04:52:47;101099.33;;;14.86;100.00
50065;BME280;35951;47.848;-122.338;2022-09-20T05:06:56;101116.77;;;14.76;100.00
50065;BME280;35951;47.848;-122.338;2022-09-20T05:09:54;101120.70;;;14.76;100.00
50065;BME280;35951;47.848;-122.338;2022-09-20T05:12:44;101117.22;;;14.75;100.00
50065;BME280;35951;47.848;-122.338;2022-09-20T05:18:37;101122.00;;;14.68;100.00
50065;BME280;35951;47.848;-122.338;2022-09-20T05:21:42;101122.88;;;14.63;100.00
50065;BME280;35951;47.848;-122.338;2022-09-20T05:24:39;101128.95;;;14.60;100.00
50065;BME280;35951;47.848;-122.338;2022-09-20T05:27:21;101130.69;;;14.58;100.00
50065;BME280;35951;47.848;-122.338;2022-09-20T05:30:04;101130.65;;;14.56;100.00
50065;BME280;35951;47.848;-122.338;2022-09-20T05:35:31;101138.50;;;14.52;100.00
50065;BME280;35951;47.848;-122.338;2022-09-20T05:47:34;101147.62;;;14.41;100.00
50065;BME280;35951;47.848;-122.338;2022-09-20T05:53:36;101160.23;;;14.40;100.00
50065;BME280;35951;47.848;-122.338;2022-09-20T05:56:24;101159.36;;;14.36;100.00
50065;BME280;35951;47.848;-122.338;2022-09-20T06:02:31;101154.99;;;14.32;100.00
50065;BME280;35951;47.848;-122.338;2022-09-20T06:05:16;101152.37;;;14.32;100.00
50065;BME280;35951;47.848;-122.338;2022-09-20T06:08:09;101159.34;;;14.30;100.00
50065;BME280;35951;47.848;-122.338;2022-09-20T06:16:36;101174.09;;;14.20;100.00
50065;BME280;35951;47.848;-122.338;2022-09-20T06:19:47;101167.58;;;14.17;100.00
50065;BME280;35951;47.848;-122.338;2022-09-20T06:22:35;101170.61;;;14.14;100.00
50065;BME280;35951;47.848;-122.338;2022-09-20T06:28:05;101172.30;;;14.06;100.00
50065;BME280;35951;47.848;-122.338;2022-09-20T06:30:42;101176.21;;;14.01;100.00
50065;BME280;35951;47.848;-122.338;2022-09-20T06:33:18;101177.05;;;13.98;100.00
50065;BME280;35951;47.848;-122.338;2022-09-20T06:36:06;101178.77;;;13.95;100.00
50065;BME280;35951;47.848;-122.338;2022-09-20T06:42:12;101178.30;;;13.88;100.00
50065;BME280;35951;47.848;-122.338;2022-09-20T06:44:40;101172.63;;;13.83;100.00
50065;BME280;35951;47.848;-122.338;2022-09-20T06:47:12;101180.45;;;13.82;100.00
50065;BME280;35951;47.848;-122.338;2022-09-20T06:49:40;101180.88;;;13.81;100.00
50065;BME280;35951;47.848;-122.338;2022-09-20T06:52:17;101181.33;;;13.81;100.00
50065;BME280;35951;47.848;-122.338;2022-09-20T06:54:47;101179.13;;;13.80;100.00
50065;BME280;35951;47.848;-122.338;2022-09-20T06:57:28;101184.77;;;13.78;100.00
50065;BME280;35951;47.848;-122.338;2022-09-20T06:59:51;101181.28;;;13.76;100.00
50065;BME280;35951;47.848;-122.338;2022-09-20T07:02:19;101179.97;;;13.75;100.00
50065;BME280;35951;47.848;-122.338;2022-09-20T07:04:46;101184.75;;;13.72;100.00
50065;BME280;35951;47.848;-122.338;2022-09-20T07:07:16;101179.52;;;13.72;100.00
50065;BME280;35951;47.848;-122.338;2022-09-20T07:09:45;101180.39;;;13.73;100.00
50065;BME280;35951;47.848;-122.338;2022-09-20T07:12:12;101171.69;;;13.72;100.00
50065;BME280;35951;47.848;-122.338;2022-09-20T07:14:40;101172.98;;;13.71;100.00
50065;BME280;35951;47.848;-122.338;2022-09-20T07:17:10;101173.42;;;13.70;100.00
50065;BME280;35951;47.848;-122.338;2022-09-20T07:19:38;101171.66;;;13.69;100.00
50065;BME280;35951;47.848;-122.338;2022-09-20T07:22:05;101169.04;;;13.68;100.00
50065;BME280;35951;47.848;-122.338;2022-09-20T07:24:33;101173.40;;;13.67;100.00
50065;BME280;35951;47.848;-122.338;2022-09-20T07:27:02;101172.97;;;13.66;100.00
50065;BME280;35951;47.848;-122.338;2022-09-20T07:29:31;101172.95;;;13.65;100.00
50065;BME280;35951;47.848;-122.338;2022-09-20T07:32:00;101176.88;;;13.65;100.00
50065;BME280;35951;47.848;-122.338;2022-09-20T07:34:29;101173.39;;;13.62;100.00
50065;BME280;35951;47.848;-122.338;2022-09-20T07:36:57;101174.67;;;13.61;100.00
50065;BME280;35951;47.848;-122.338;2022-09-20T07:39:25;101173.34;;;13.58;100.00
50065;BME280;35951;47.848;-122.338;2022-09-20T07:41:53;101168.10;;;13.56;100.00
50065;BME280;35951;47.848;-122.338;2022-09-20T07:44:21;101169.84;;;13.56;100.00
50065;BME280;35951;47.848;-122.338;2022-09-20T07:46:54;101175.52;;;13.55;100.00
50065;BME280;35951;47.848;-122.338;2022-09-20T07:49:26;101172.91;;;13.55;100.00
50065;BME280;35951;47.848;-122.338;2022-09-20T07:51:56;101176.36;;;13.54;100.00
50065;BME280;35951;47.848;-122.338;2022-09-20T07:54:24;101175.91;;;13.53;100.00
50065;BME280;35951;47.848;-122.338;2022-09-20T07:56:55;101184.19;;;13.54;100.00
50065;BME280;35951;47.848;-122.338;2022-09-20T07:59:23;101175.48;;;13.52;100.00
50065;BME280;35951;47.848;-122.338;2022-09-20T08:01:51;101168.50;;;13.51;100.00
50065;BME280;35951;47.848;-122.338;2022-09-20T08:04:19;101170.26;;;13.52;100.00
50065;BME280;35951;47.848;-122.338;2022-09-20T08:06:47;101170.70;;;13.52;100.00
50065;BME280;35951;47.848;-122.338;2022-09-20T08:09:15;101168.09;;;13.52;100.00
50065;BME280;35951;47.848;-122.338;2022-09-20T08:11:43;101171.55;;;13.51;100.00
50065;BME280;35951;47.848;-122.338;2022-09-20T08:14:16;101168.07;;;13.50;100.00
50065;BME280;35951;47.848;-122.338;2022-09-20T08:16:46;101175.01;;;13.50;100.00
50065;BME280;35951;47.848;-122.338;2022-09-20T08:19:17;101168.48;;;13.47;100.00
50065;BME280;35951;47.848;-122.338;2022-09-20T08:21:46;101170.62;;;13.44;100.00
50065;BME280;35951;47.848;-122.338;2022-09-20T08:24:14;101175.42;;;13.43;100.00
50065;BME280;35951;47.848;-122.338;2022-09-20T08:26:42;101180.62;;;13.41;100.00
50065;BME280;35951;47.848;-122.338;2022-09-20T08:29:10;101173.64;;;13.40;100.00
50065;BME280;35951;47.848;-122.338;2022-09-20T08:31:39;101178.44;;;13.39;100.00
50065;BME280;35951;47.848;-122.338;2022-09-20T08:34:08;101176.67;;;13.38;100.00
50065;BME280;35951;47.848;-122.338;2022-09-20T08:36:39;101175.34;;;13.37;100.00
50065;BME280;35951;47.848;-122.338;2022-09-20T08:39:09;101178.41;;;13.36;100.00
50065;BME280;35951;47.848;-122.338;2022-09-20T08:41:47;101188.41;;;13.35;100.00
50065;BME280;35951;47.848;-122.338;2022-09-20T08:49:42;101189.19;;;13.28;100.00
50065;BME280;35951;47.848;-122.338;2022-09-20T08:52:15;101192.19;;;13.26;100.00
50065;BME280;35951;47.848;-122.338;2022-09-20T08:54:45;101196.53;;;13.24;100.00
50065;BME280;35951;47.848;-122.338;2022-09-20T08:57:15;101195.22;;;13.24;100.00
50065;BME280;35951;47.848;-122.338;2022-09-20T08:59:44;101197.83;;;13.24;100.00
50065;BME280;35951;47.848;-122.338;2022-09-20T09:02:17;101190.88;;;13.23;100.00
50065;BME280;35951;47.848;-122.338;2022-09-20T09:04:47;101194.34;;;13.22;100.00
50065;BME280;35951;47.848;-122.338;2022-09-20T09:07:18;101193.91;;;13.21;100.00
50065;BME280;35951;47.848;-122.338;2022-09-20T09:09:48;101198.25;;;13.22;100.00
50065;BME280;35951;47.848;-122.338;2022-09-20T09:12:22;101205.67;;;13.22;100.00
50065;BME280;35951;47.848;-122.338;2022-09-20T09:14:56;101197.41;;;13.23;100.00
50065;BME280;35951;47.848;-122.338;2022-09-20T09:17:28;101194.36;;;13.23;100.00
50065;BME280;35951;47.848;-122.338;2022-09-20T09:19:58;101196.10;;;13.23;100.00
50065;BME280;35951;47.848;-122.338;2022-09-20T09:22:40;101194.36;;;13.23;100.00
50065;BME280;35951;47.848;-122.338;2022-09-20T09:30:42;101185.24;;;13.25;100.00
50065;BME280;35951;47.848;-122.338;2022-09-20T09:33:26;101189.58;;;13.26;100.00
50065;BME280;35951;47.848;-122.338;2022-09-20T09:38:44;101190.99;;;13.32;100.00
50065;BME280;35951;47.848;-122.338;2022-09-20T09:41:30;101194.91;;;13.32;100.00
50065;BME280;35951;47.848;-122.338;2022-09-20T09:44:04;101200.98;;;13.33;100.00
50065;BME280;35951;47.848;-122.338;2022-09-20T09:46:36;101194.04;;;13.32;100.00
50065;BME280;35951;47.848;-122.338;2022-09-20T09:52:10;101201.81;;;13.30;100.00
50065;BME280;35951;47.848;-122.338;2022-09-20T09:54:46;101210.11;;;13.31;100.00
50065;BME280;35951;47.848;-122.338;2022-09-20T10:00:12;101209.23;;;13.31;100.00
50065;BME280;35951;47.848;-122.338;2022-09-20T10:11:57;101219.13;;;13.22;100.00
50065;BME280;35951;47.848;-122.338;2022-09-20T10:32:11;101215.11;;;13.08;100.00
50065;BME280;35951;47.848;-122.338;2022-09-20T10:38:17;101212.87;;;13.03;100.00
50065;BME280;35951;47.848;-122.338;2022-09-20T10:44:32;101223.71;;;12.99;100.00
50065;BME280;35951;47.848;-122.338;2022-09-20T10:47:15;101224.13;;;12.97;100.00
50065;BME280;35951;47.848;-122.338;2022-09-20T11:07:17;101241.29;;;12.75;100.00
50065;BME280;35951;47.848;-122.338;2022-09-20T11:10:05;101240.37;;;12.72;100.00
50065;BME280;35951;47.848;-122.338;2022-09-20T11:13:00;101236.44;;;12.70;100.00
50065;BME280;35951;47.848;-122.338;2022-09-20T11:15:33;101236.86;;;12.68;100.00
50065;BME280;35951;47.848;-122.338;2022-09-20T11:21:25;101243.77;;;12.64;100.00
50065;BME280;35951;47.848;-122.338;2022-09-20T11:23:20;101239.86;;;12.64;100.00
50065;BME280;35951;47.848;-122.338;2022-09-20T11:26:09;101242.00;;;12.63;100.00
50065;BME280;35951;47.848;-122.338;2022-09-20T11:28:42;101244.16;;;12.62;100.00
50065;BME280;35951;47.848;-122.338;2022-09-20T11:31:26;101247.66;;;12.63;100.00
50065;BME280;35951;47.848;-122.338;2022-09-20T11:36:56;101241.56;;;12.64;100.00
50065;BME280;35951;47.848;-122.338;2022-09-20T11:39:44;101248.11;;;12.65;100.00
50065;BME280;35951;47.848;-122.338;2022-09-20T11:42:14;101248.13;;;12.67;100.00
50065;BME280;35951;47.848;-122.338;2022-09-20T11:44:45;101249.45;;;12.68;100.00
50065;BME280;35951;47.848;-122.338;2022-09-20T11:55:45;101237.35;;;12.74;100.00
50065;BME280;35951;47.848;-122.338;2022-09-20T11:58:15;101237.78;;;12.75;100.00
50065;BME280;35951;47.848;-122.338;2022-09-20T12:00:46;101239.56;;;12.77;100.00
50065;BME280;35951;47.848;-122.338;2022-09-20T12:03:29;101236.98;;;12.79;100.00
50065;BME280;35951;47.848;-122.338;2022-09-20T12:06:03;101241.80;;;12.82;100.00
50065;BME280;35951;47.848;-122.338;2022-09-20T12:08:37;101248.79;;;12.86;100.00
50065;BME280;35951;47.848;-122.338;2022-09-20T12:11:08;101243.16;;;12.89;100.00
50065;BME280;35951;47.848;-122.338;2022-09-20T12:13:39;101246.66;;;12.91;100.00
50065;BME280;35951;47.848;-122.338;2022-09-20T12:16:17;101242.77;;;12.92;100.00
50065;BME280;35951;47.848;-122.338;2022-09-20T12:24:36;101247.61;;;12.97;100.00
50065;BME280;35951;47.848;-122.338;2022-09-20T12:32:51;101249.33;;;12.95;100.00
50065;BME280;35951;47.848;-122.338;2022-09-20T12:35:51;101249.33;;;12.95;100.00
50065;BME280;35951;47.848;-122.338;2022-09-20T12:41:04;101247.54;;;12.93;100.00
50065;BME280;35951;47.848;-122.338;2022-09-20T12:43:36;101249.72;;;12.92;100.00
50065;BME280;35951;47.848;-122.338;2022-09-20T12:46:05;101250.56;;;12.91;100.00
50065;BME280;35951;47.848;-122.338;2022-09-20T12:48:35;101249.27;;;12.91;100.00
50065;BME280;35951;47.848;-122.338;2022-09-20T12:51:15;101243.59;;;12.90;100.00
50065;BME280;35951;47.848;-122.338;2022-09-20T12:54:12;101245.79;;;12.90;100.00
50065;BME280;35951;47.848;-122.338;2022-09-20T12:56:42;101256.22;;;12.90;100.00
50065;BME280;35951;47.848;-122.338;2022-09-20T12:59:25;101259.25;;;12.88;100.00
50065;BME280;35951;47.848;-122.338;2022-09-20T13:01:55;101255.31;;;12.86;100.00
50065;BME280;35951;47.848;-122.338;2022-09-20T13:04:51;101255.29;;;12.85;100.00
50065;BME280;35951;47.848;-122.338;2022-09-20T13:07:31;101260.05;;;12.82;100.00
50065;BME280;35951;47.848;-122.338;2022-09-20T13:10:22;101253.94;;;12.82;100.00
50065;BME280;35951;47.848;-122.338;2022-09-20T13:12:58;101247.40;;;12.80;100.00
50065;BME280;35951;47.848;-122.338;2022-09-20T13:15:28;101250.00;;;12.77;100.00
50065;BME280;35951;47.848;-122.338;2022-09-20T13:17:58;101253.89;;;12.76;100.00
50065;BME280;35951;47.848;-122.338;2022-09-20T13:20:29;101251.70;;;12.74;100.00
50065;BME280;35951;47.848;-122.338;2022-09-20T13:23:00;101257.31;;;12.73;100.00
50065;BME280;35951;47.848;-122.338;2022-09-20T13:25:31;101259.92;;;12.73;100.00
50065;BME280;35951;47.848;-122.338;2022-09-20T13:28:37;101259.94;;;12.75;100.00
50065;BME280;35951;47.848;-122.338;2022-09-20T13:31:22;101257.33;;;12.75;100.00
50065;BME280;35951;47.848;-122.338;2022-09-20T13:33:51;101261.66;;;12.73;100.00
50065;BME280;35951;47.848;-122.338;2022-09-20T13:36:27;101263.84;;;12.72;100.00
50065;BME280;35951;47.848;-122.338;2022-09-20T13:38:56;101259.03;;;12.71;100.00
50065;BME280;35951;47.848;-122.338;2022-09-20T13:41:28;101267.30;;;12.71;100.00
50065;BME280;35951;47.848;-122.338;2022-09-20T13:43:56;101266.42;;;12.70;100.00
50065;BME280;35951;47.848;-122.338;2022-09-20T13:46:29;101273.34;;;12.70;100.00
50065;BME280;35951;47.848;-122.338;2022-09-20T13:49:12;101275.09;;;12.69;100.00
50065;BME280;35951;47.848;-122.338;2022-09-20T13:51:42;101271.62;;;12.68;100.00
50065;BME280;35951;47.848;-122.338;2022-09-20T13:57:01;101269.88;;;12.69;100.00
50065;BME280;35951;47.848;-122.338;2022-09-20T13:59:42;101276.39;;;12.69;100.00
50065;BME280;35951;47.848;-122.338;2022-09-20T14:04:59;101281.19;;;12.71;100.00
50065;BME280;35951;47.848;-122.338;2022-09-20T14:07:29;101283.78;;;12.70;100.00
50065;BME280;35951;47.848;-122.338;2022-09-20T14:09:58;101278.13;;;12.68;100.00
50065;BME280;35951;47.848;-122.338;2022-09-20T14:12:27;101284.21;;;12.69;100.00
50065;BME280;35951;47.848;-122.338;2022-09-20T14:14:55;101281.18;;;12.68;100.00
50065;BME280;35951;47.848;-122.338;2022-09-20T14:17:24;101287.67;;;12.66;100.00
50065;BME280;35951;47.848;-122.338;2022-09-20T14:19:53;101284.60;;;12.65;100.00
50065;BME280;35951;47.848;-122.338;2022-09-20T14:22:27;101283.77;;;12.66;100.00
50065;BME280;35951;47.848;-122.338;2022-09-20T14:25:01;101285.05;;;12.65;100.00
50065;BME280;35951;47.848;-122.338;2022-09-20T14:27:31;101288.95;;;12.65;100.00
50065;BME280;35951;47.848;-122.338;2022-09-20T14:29:59;101287.63;;;12.63;100.00
50065;BME280;35951;47.848;-122.338;2022-09-20T14:32:35;101298.05;;;12.63;100.00
50065;BME280;35951;47.848;-122.338;2022-09-20T14:35:17;101293.69;;;12.61;100.00
50065;BME280;35951;47.848;-122.338;2022-09-20T14:37:51;101299.77;;;12.61;100.00
50065;BME280;35951;47.848;-122.338;2022-09-20T14:40:26;101298.88;;;12.59;100.00
50065;BME280;35951;47.848;-122.338;2022-09-20T14:43:03;101301.48;;;12.59;100.00
50065;BME280;35951;47.848;-122.338;2022-09-20T14:45:34;101304.94;;;12.58;100.00
50065;BME280;35951;47.848;-122.338;2022-09-20T14:53:39;101307.54;;;12.58;100.00
50065;BME280;35951;47.848;-122.338;2022-09-20T14:56:09;101310.14;;;12.58;100.00
50065;BME280;35951;47.848;-122.338;2022-09-20T14:59:17;101307.98;;;12.58;100.00
50065;BME280;35951;47.848;-122.338;2022-09-20T15:01:40;101311.91;;;12.59;100.00
50065;BME280;35951;47.848;-122.338;2022-09-20T15:04:20;101302.38;;;12.61;100.00
50065;BME280;35951;47.848;-122.338;2022-09-20T15:06:46;101315.00;;;12.63;100.00
50065;BME280;35951;47.848;-122.338;2022-09-20T15:09:14;101313.70;;;12.63;100.00
50065;BME280;35951;47.848;-122.338;2022-09-20T15:11:42;101311.11;;;12.65;100.00
50065;BME280;35951;47.848;-122.338;2022-09-20T15:14:10;101313.30;;;12.67;100.00
50065;BME280;35951;47.848;-122.338;2022-09-20T15:16:37;101318.56;;;12.70;100.00
50065;BME280;35951;47.848;-122.338;2022-09-20T15:19:05;101322.06;;;12.72;100.00
50065;BME280;35951;47.848;-122.338;2022-09-20T15:21:33;101324.72;;;12.75;100.00
50065;BME280;35951;47.848;-122.338;2022-09-20T15:24:01;101326.04;;;12.78;100.00
50065;BME280;35951;47.848;-122.338;2022-09-20T15:26:28;101329.55;;;12.79;100.00
50065;BME280;35951;47.848;-122.338;2022-09-20T15:28:57;101331.33;;;12.83;100.00
50065;BME280;35951;47.848;-122.338;2022-09-20T15:31:26;101331.78;;;12.85;100.00
50065;BME280;35951;47.848;-122.338;2022-09-20T15:33:54;101332.67;;;12.87;100.00
50065;BME280;35951;47.848;-122.338;2022-09-20T15:36:21;101336.16;;;12.90;100.00
50065;BME280;35951;47.848;-122.338;2022-09-20T15:38:52;101338.83;;;12.93;100.00
50065;BME280;35951;47.848;-122.338;2022-09-20T15:41:19;101342.76;;;12.94;100.00
50065;BME280;35951;47.848;-122.338;2022-09-20T15:43:47;101338.43;;;12.96;100.00
50065;BME280;35951;47.848;-122.338;2022-09-20T15:46:21;101342.37;;;12.98;100.00
50065;BME280;35951;47.848;-122.338;2022-09-20T15:48:51;101345.42;;;13.00;100.00
50065;BME280;35951;47.848;-122.338;2022-09-20T15:51:20;101348.55;;;13.08;100.00
50065;BME280;35951;47.848;-122.338;2022-09-20T15:53:59;101348.16;;;13.11;100.00
50065;BME280;35951;47.848;-122.338;2022-09-20T15:56:30;101350.42;;;13.18;100.00
50065;BME280;35951;47.848;-122.338;2022-09-20T15:59:02;101345.26;;;13.24;100.00
50065;BME280;35951;47.848;-122.338;2022-09-20T16:01:39;101341.84;;;13.28;100.00
50065;BME280;35951;47.848;-122.338;2022-09-20T16:04:09;101345.34;;;13.30;100.00
50065;BME280;35951;47.848;-122.338;2022-09-20T16:06:39;101348.90;;;13.34;100.00
50065;BME280;35951;47.848;-122.338;2022-09-20T16:09:06;101349.36;;;13.38;100.00
50065;BME280;35951;47.848;-122.338;2022-09-20T16:11:35;101354.61;;;13.39;100.00
50065;BME280;35951;47.848;-122.338;2022-09-20T16:14:04;101351.14;;;13.42;100.00
50065;BME280;35951;47.848;-122.338;2022-09-20T16:16:33;101354.23;;;13.44;100.00
50065;BME280;35951;47.848;-122.338;2022-09-20T16:19:01;101357.28;;;13.47;100.00
50065;BME280;35951;47.848;-122.338;2022-09-20T16:21:56;101358.63;;;13.50;100.00
50065;BME280;35951;47.848;-122.338;2022-09-20T16:24:24;101352.13;;;13.55;100.00
50065;BME280;35951;47.848;-122.338;2022-09-20T16:26:53;101359.56;;;13.58;100.00
50065;BME280;35951;47.848;-122.338;2022-09-20T16:29:21;101359.61;;;13.61;100.00
50065;BME280;35951;47.848;-122.338;2022-09-20T16:31:49;101362.68;;;13.66;100.00
50065;BME280;35951;47.848;-122.338;2022-09-20T16:34:31;101360.98;;;13.69;100.00
50065;BME280;35951;47.848;-122.338;2022-09-20T16:37:05;101366.66;;;13.73;100.00
50065;BME280;35951;47.848;-122.338;2022-09-20T16:39:35;101357.54;;;13.75;100.00
50065;BME280;35951;47.848;-122.338;2022-09-20T16:42:04;101360.63;;;13.80;100.00
50065;BME280;35951;47.848;-122.338;2022-09-20T16:44:35;101363.30;;;13.85;100.00
50065;BME280;35951;47.848;-122.338;2022-09-20T16:47:05;101363.32;;;13.90;100.00
50065;BME280;35951;47.848;-122.338;2022-09-20T16:49:35;101364.70;;;13.96;100.00
50065;BME280;35951;47.848;-122.338;2022-09-20T16:52:07;101367.77;;;14.00;100.00
50065;BME280;35951;47.848;-122.338;2022-09-20T16:54:35;101369.53;;;14.04;100.00
50065;BME280;35951;47.848;-122.338;2022-09-20T16:57:03;101372.63;;;14.10;100.00
50065;BME280;35951;47.848;-122.338;2022-09-20T16:59:31;101373.97;;;14.13;100.00
50065;BME280;35951;47.848;-122.338;2022-09-20T17:01:59;101372.27;;;14.18;100.00
50065;BME280;35951;47.848;-122.338;2022-09-20T17:04:27;101376.64;;;14.22;100.00
50065;BME280;35951;47.848;-122.338;2022-09-20T17:06:55;101378.86;;;14.27;100.00
50065;BME280;35951;47.848;-122.338;2022-09-20T17:09:23;101371.92;;;14.31;100.00
50065;BME280;35951;47.848;-122.338;2022-09-20T17:11:51;101372.81;;;14.34;100.00
50065;BME280;35951;47.848;-122.338;2022-09-20T17:14:20;101368.92;;;14.37;100.00
50065;BME280;35951;47.848;-122.338;2022-09-20T17:16:47;101374.16;;;14.40;100.00